地図

経路データ

SID SEASON NUMBER BASIN SUBBASIN NAME ISO_TIME NATURE LAT LON WMO_WIND WMO_PRES WMO_AGENCY TRACK_TYPE DIST2LAND LANDFALL IFLAG USA_AGENCY USA_ATCF_ID USA_LAT USA_LON USA_RECORD USA_STATUS USA_WIND USA_PRES USA_SSHS USA_R34_NE USA_R34_SE USA_R34_SW USA_R34_NW USA_R50_NE USA_R50_SE USA_R50_SW USA_R50_NW USA_R64_NE USA_R64_SE USA_R64_SW USA_R64_NW USA_POCI USA_ROCI USA_RMW USA_EYE TOKYO_LAT TOKYO_LON TOKYO_GRADE TOKYO_WIND TOKYO_PRES TOKYO_R50_DIR TOKYO_R50_LONG TOKYO_R50_SHORT TOKYO_R30_DIR TOKYO_R30_LONG TOKYO_R30_SHORT TOKYO_LAND CMA_LAT CMA_LON CMA_CAT CMA_WIND CMA_PRES HKO_LAT HKO_LON HKO_CAT HKO_WIND HKO_PRES NEWDELHI_LAT NEWDELHI_LON NEWDELHI_GRADE NEWDELHI_WIND NEWDELHI_PRES NEWDELHI_CI NEWDELHI_DP NEWDELHI_POCI REUNION_LAT REUNION_LON REUNION_TYPE REUNION_WIND REUNION_PRES REUNION_TNUM REUNION_CI REUNION_RMW REUNION_R34_NE REUNION_R34_SE REUNION_R34_SW REUNION_R34_NW REUNION_R50_NE REUNION_R50_SE REUNION_R50_SW REUNION_R50_NW REUNION_R64_NE REUNION_R64_SE REUNION_R64_SW REUNION_R64_NW BOM_LAT BOM_LON BOM_TYPE BOM_WIND BOM_PRES BOM_TNUM BOM_CI BOM_RMW BOM_R34_NE BOM_R34_SE BOM_R34_SW BOM_R34_NW BOM_R50_NE BOM_R50_SE BOM_R50_SW BOM_R50_NW BOM_R64_NE BOM_R64_SE BOM_R64_SW BOM_R64_NW BOM_ROCI BOM_POCI BOM_EYE BOM_POS_METHOD BOM_PRES_METHOD NADI_LAT NADI_LON NADI_CAT NADI_WIND NADI_PRES WELLINGTON_LAT WELLINGTON_LON WELLINGTON_WIND WELLINGTON_PRES DS824_LAT DS824_LON DS824_STAGE DS824_WIND DS824_PRES TD9636_LAT TD9636_LON TD9636_STAGE TD9636_WIND TD9636_PRES TD9635_LAT TD9635_LON TD9635_WIND TD9635_PRES TD9635_ROCI NEUMANN_LAT NEUMANN_LON NEUMANN_CLASS NEUMANN_WIND NEUMANN_PRES MLC_LAT MLC_LON MLC_CLASS MLC_WIND MLC_PRES USA_GUST BOM_GUST BOM_GUST_PER REUNION_GUST REUNION_GUST_PER USA_SEAHGT USA_SEARAD_NE USA_SEARAD_SE USA_SEARAD_SW USA_SEARAD_NW STORM_SPEED STORM_DIR
1905186N22089 1905 24 NI BB NOT_NAMED 1905-07-05 00:00:00 TS 21.7000 89.3000 main 10 0 _________O____ -1 21.7000 89.3000 TC 34 7 288
1905186N22089 1905 24 NI BB NOT_NAMED 1905-07-05 03:00:00 TS 21.7986 88.9651 main 0 0 _________PO___ -1 21.8478 88.7977 TC 36 21.7000 89.3000 2 8 288
1905186N22089 1905 24 NI BB NOT_NAMED 1905-07-05 06:00:00 TS 21.9441 88.5072 main 0 0 _________OP___ -1 22.0000 88.3000 TC 39 21.8602 88.8179 2 9 289
1905186N22089 1905 24 NI BB NOT_NAMED 1905-07-05 09:00:00 TS 22.0966 88.0306 main 0 0 _________PP___ -1 22.1573 87.8075 TC 42 22.0157 88.3282 2 9 288
1905186N22089 1905 24 NI BB NOT_NAMED 1905-07-05 12:00:00 TS 22.2317 87.5622 main 0 0 _________OP___ -1 22.3000 87.3000 TC 45 22.1635 87.8244 2 10 285
1905186N22089 1905 24 NI BB NOT_NAMED 1905-07-05 15:00:00 TS 22.3537 87.0287 main 0 0 _________PO___ -1 22.4074 86.7574 TC 41 22.3000 87.3000 3 10 283
1905186N22089 1905 24 NI BB NOT_NAMED 1905-07-05 18:00:00 TS 22.4612 86.4760 main 0 0 _________OP___ -1 22.5000 86.2000 TC 37 22.4224 86.7520 3 11 282
1905186N22089 1905 24 NI BB NOT_NAMED 1905-07-05 21:00:00 TS 22.5687 85.9137 main 0 0 _________PP___ -1 22.6075 85.6350 TC 33 22.5300 86.1924 3 10 281
1905186N22089 1905 24 NI BB NOT_NAMED 1905-07-06 00:00:00 TS 22.6612 85.3682 main 0 0 _________OP___ -1 22.7000 85.1000 TC 30 22.6225 85.6365 3 10 279
1905186N22089 1905 24 NI BB NOT_NAMED 1905-07-06 03:00:00 TS 22.7286 84.8712 main 0 0 _________PO___ -1 22.7572 84.6424 TC 30 22.7000 85.1000 1 9 278
1905186N22089 1905 24 NI BB NOT_NAMED 1905-07-06 06:00:00 TS 22.7797 84.4035 main 0 0 _________OP___ -1 22.8000 84.2000 TC 30 22.7595 84.6070 1 9 276
1905186N22089 1905 24 NI BB NOT_NAMED 1905-07-06 09:00:00 TS 22.8244 83.9209 main 0 0 _________PP___ -1 22.8424 83.7074 TC 30 22.8064 84.1343 1 9 276
1905186N22089 1905 24 NI BB NOT_NAMED 1905-07-06 12:00:00 TS 22.8751 83.4348 main 0 0 _________OP___ -1 22.9000 83.2000 TC 30 22.8501 83.6695 1 9 278
1905186N22089 1905 24 NI BB NOT_NAMED 1905-07-06 15:00:00 TS 22.9499 82.9500 main 0 0 _________PO___ -1 22.9998 82.7001 TC 30 22.9000 83.2000 1 9 280
1905186N22089 1905 24 NI BB NOT_NAMED 1905-07-06 18:00:00 TS 23.0377 82.4577 main 0 0 _________OP___ -1 23.1000 82.2000 TC 30 22.9754 82.7155 1 9 280
1905186N22089 1905 24 NI BB NOT_NAMED 1905-07-06 21:00:00 TS 23.1070 81.9650 main 0 0 _________PP___ -1 23.1573 81.7074 TC 30 23.0567 82.2227 1 9 278
1905186N22089 1905 24 NI BB NOT_NAMED 1905-07-07 00:00:00 TS 23.1673 81.4593 main 0 0 _________OP___ -1 23.2000 81.2000 TC 30 23.1347 81.7186 1 10 277
1905186N22089 1905 24 NI BB NOT_NAMED 1905-07-07 03:00:00 TS 23.2287 80.9288 main 0 0 _________PO___ -1 23.2574 80.6576 TC 30 23.2000 81.2000 1 10 276
1905186N22089 1905 24 NI BB NOT_NAMED 1905-07-07 06:00:00 TS 23.2677 80.3739 main 0 0 _________OP___ -1 23.3000 80.1000 TC 30 23.2354 80.6478 1 10 273
1905186N22089 1905 24 NI BB NOT_NAMED 1905-07-07 09:00:00 TS 23.2788 79.8097 main 0 0 _________PP___ -1 23.3000 79.5348 TC 30 23.2576 80.0845 1 10 271
1905186N22089 1905 24 NI BB NOT_NAMED 1905-07-07 12:00:00 TS 23.2880 79.2645 main 0 0 _________OP___ -1 23.3000 79.0000 TC 30 23.2760 79.5290 1 10 273
1905186N22089 1905 24 NI BB NOT_NAMED 1905-07-07 15:00:00 TS 23.3211 78.7675 main 0 0 _________PO___ -1 23.3422 78.5350 TC 30 23.3000 79.0000 1 9 275
1905186N22089 1905 24 NI BB NOT_NAMED 1905-07-07 18:00:00 TS 23.3640 78.3349 main 0 0 _________OP___ -1 23.4000 78.1000 TC 30 23.3370 78.5110 1 8 277
1905186N22089 1905 24 NI AS NOT_NAMED 1905-07-07 21:00:00 TS 23.4124 77.8954 main 0 0 _________PP___ -1 23.4528 77.6550 TC 30 23.3854 78.0556 1 8 277
1905186N22089 1905 24 NI AS NOT_NAMED 1905-07-08 00:00:00 TS 23.4607 77.4816 main 0 0 _________OP___ -1 23.5000 77.2000 TC 30 23.4411 77.6223 1 6 278
1905186N22089 1905 24 NI AS NOT_NAMED 1905-07-08 03:00:00 NR 23.5000 77.2000 main 0 __________O___ -1 TC 23.5000 77.2000 1 5 279

IBTrACS Databaseについて

本データベースは、米国NOAAが公開する1842年以降の世界の熱帯低気圧のベストトラックデータアーカイブInternational Best Track Archive for Climate Stewardship (IBTrACS)を、ウェブで閲覧しやすい形式に変換したものです。

最終更新日:2021-10-19